sensor_id;sensor_type;location;lat;lon;timestamp;temperature;humidity
23873;DHT22;42884;50.718;4.630;2023-07-31T00:00:31;18.10;99.90
23873;DHT22;42884;50.718;4.630;2023-07-31T00:02:57;18.20;99.90
23873;DHT22;42884;50.718;4.630;2023-07-31T00:05:22;18.20;99.90
23873;DHT22;42884;50.718;4.630;2023-07-31T00:07:48;18.20;99.90
23873;DHT22;42884;50.718;4.630;2023-07-31T00:10:13;18.30;99.90
23873;DHT22;42884;50.718;4.630;2023-07-31T00:12:40;18.30;99.90
23873;DHT22;42884;50.718;4.630;2023-07-31T00:15:07;18.20;99.90
23873;DHT22;42884;50.718;4.630;2023-07-31T00:17:32;18.20;99.90
23873;DHT22;42884;50.718;4.630;2023-07-31T00:19:58;18.30;99.90
23873;DHT22;42884;50.718;4.630;2023-07-31T00:22:23;18.40;99.90
23873;DHT22;42884;50.718;4.630;2023-07-31T00:24:49;18.40;99.90
23873;DHT22;42884;50.718;4.630;2023-07-31T00:27:15;18.40;99.90
23873;DHT22;42884;50.718;4.630;2023-07-31T00:29:40;18.40;99.90
23873;DHT22;42884;50.718;4.630;2023-07-31T00:32:06;18.50;99.90
23873;DHT22;42884;50.718;4.630;2023-07-31T00:34:32;18.50;99.90
23873;DHT22;42884;50.718;4.630;2023-07-31T00:36:57;18.40;99.90
23873;DHT22;42884;50.718;4.630;2023-07-31T00:39:23;18.40;99.90
23873;DHT22;42884;50.718;4.630;2023-07-31T00:41:48;18.50;99.90
23873;DHT22;42884;50.718;4.630;2023-07-31T00:44:14;18.40;99.90
23873;DHT22;42884;50.718;4.630;2023-07-31T00:46:40;18.50;99.90
23873;DHT22;42884;50.718;4.630;2023-07-31T00:49:05;18.50;99.90
23873;DHT22;42884;50.718;4.630;2023-07-31T00:51:31;18.50;99.90
23873;DHT22;42884;50.718;4.630;2023-07-31T00:53:57;18.40;99.90
23873;DHT22;42884;50.718;4.630;2023-07-31T00:56:23;18.50;99.90
23873;DHT22;42884;50.718;4.630;2023-07-31T00:58:49;18.50;99.90
23873;DHT22;42884;50.718;4.630;2023-07-31T01:01:14;18.50;99.90
23873;DHT22;42884;50.718;4.630;2023-07-31T01:03:40;18.40;99.90
23873;DHT22;42884;50.718;4.630;2023-07-31T01:06:23;18.50;99.90
23873;DHT22;42884;50.718;4.630;2023-07-31T01:14:18;18.50;99.90
23873;DHT22;42884;50.718;4.630;2023-07-31T01:16:44;18.60;99.90
23873;DHT22;42884;50.718;4.630;2023-07-31T01:19:10;18.60;99.90
23873;DHT22;42884;50.718;4.630;2023-07-31T01:26:39;18.60;99.90
23873;DHT22;42884;50.718;4.630;2023-07-31T01:31:34;18.50;99.90
23873;DHT22;42884;50.718;4.630;2023-07-31T01:34:01;18.50;99.90
23873;DHT22;42884;50.718;4.630;2023-07-31T01:36:27;18.50;99.90
23873;DHT22;42884;50.718;4.630;2023-07-31T01:38:57;18.40;99.90
23873;DHT22;42884;50.718;4.630;2023-07-31T01:41:23;18.30;99.90
23873;DHT22;42884;50.718;4.630;2023-07-31T01:43:49;18.30;99.90
23873;DHT22;42884;50.718;4.630;2023-07-31T01:46:14;18.30;99.90
23873;DHT22;42884;50.718;4.630;2023-07-31T01:48:40;18.30;99.90
23873;DHT22;42884;50.718;4.630;2023-07-31T01:51:05;18.30;99.90
23873;DHT22;42884;50.718;4.630;2023-07-31T01:53:31;18.30;99.90
23873;DHT22;42884;50.718;4.630;2023-07-31T01:55:57;18.30;99.90
23873;DHT22;42884;50.718;4.630;2023-07-31T01:58:23;18.30;99.90
23873;DHT22;42884;50.718;4.630;2023-07-31T02:00:48;18.20;99.90
23873;DHT22;42884;50.718;4.630;2023-07-31T02:03:14;18.20;99.90
23873;DHT22;42884;50.718;4.630;2023-07-31T02:05:48;18.30;99.90
23873;DHT22;42884;50.718;4.630;2023-07-31T02:08:14;18.20;99.90
23873;DHT22;42884;50.718;4.630;2023-07-31T02:10:40;18.40;99.90
23873;DHT22;42884;50.718;4.630;2023-07-31T02:13:06;19.10;99.90
23873;DHT22;42884;50.718;4.630;2023-07-31T02:15:32;18.30;99.90
23873;DHT22;42884;50.718;4.630;2023-07-31T02:17:58;18.30;99.90
23873;DHT22;42884;50.718;4.630;2023-07-31T02:20:23;18.30;99.90
23873;DHT22;42884;50.718;4.630;2023-07-31T02:22:49;18.30;99.90
23873;DHT22;42884;50.718;4.630;2023-07-31T02:25:15;18.30;99.90
23873;DHT22;42884;50.718;4.630;2023-07-31T02:27:40;18.30;99.90
23873;DHT22;42884;50.718;4.630;2023-07-31T02:30:06;18.40;99.90
23873;DHT22;42884;50.718;4.630;2023-07-31T02:32:32;18.40;99.90
23873;DHT22;42884;50.718;4.630;2023-07-31T02:34:57;18.50;99.90
23873;DHT22;42884;50.718;4.630;2023-07-31T02:37:23;18.50;99.90
23873;DHT22;42884;50.718;4.630;2023-07-31T02:39:48;18.40;99.90
23873;DHT22;42884;50.718;4.630;2023-07-31T02:42:14;18.40;99.90
23873;DHT22;42884;50.718;4.630;2023-07-31T02:44:40;18.40;99.90
23873;DHT22;42884;50.718;4.630;2023-07-31T02:47:05;18.30;99.90
23873;DHT22;42884;50.718;4.630;2023-07-31T02:49:31;18.20;99.90
23873;DHT22;42884;50.718;4.630;2023-07-31T02:51:57;18.20;99.90
23873;DHT22;42884;50.718;4.630;2023-07-31T02:54:23;18.30;99.90
23873;DHT22;42884;50.718;4.630;2023-07-31T02:56:48;18.20;99.90
23873;DHT22;42884;50.718;4.630;2023-07-31T02:59:14;18.30;99.90
23873;DHT22;42884;50.718;4.630;2023-07-31T03:01:40;18.20;99.90
23873;DHT22;42884;50.718;4.630;2023-07-31T03:04:05;18.30;99.90
23873;DHT22;42884;50.718;4.630;2023-07-31T03:06:31;18.30;99.90
23873;DHT22;42884;50.718;4.630;2023-07-31T03:08:56;18.30;99.90
23873;DHT22;42884;50.718;4.630;2023-07-31T03:11:22;18.40;99.90
23873;DHT22;42884;50.718;4.630;2023-07-31T03:13:48;18.30;99.90
23873;DHT22;42884;50.718;4.630;2023-07-31T03:16:13;18.20;99.90
23873;DHT22;42884;50.718;4.630;2023-07-31T03:18:39;18.20;99.90
23873;DHT22;42884;50.718;4.630;2023-07-31T03:21:04;18.20;99.90
23873;DHT22;42884;50.718;4.630;2023-07-31T03:23:30;18.20;99.90
23873;DHT22;42884;50.718;4.630;2023-07-31T03:25:59;18.20;99.90
23873;DHT22;42884;50.718;4.630;2023-07-31T03:28:25;18.20;99.90
23873;DHT22;42884;50.718;4.630;2023-07-31T03:30:51;18.20;99.90
23873;DHT22;42884;50.718;4.630;2023-07-31T03:33:18;18.30;99.90
23873;DHT22;42884;50.718;4.630;2023-07-31T03:35:43;18.30;99.90
23873;DHT22;42884;50.718;4.630;2023-07-31T03:38:09;18.30;99.90
23873;DHT22;42884;50.718;4.630;2023-07-31T03:40:34;18.20;99.90
23873;DHT22;42884;50.718;4.630;2023-07-31T03:43:00;18.10;99.90
23873;DHT22;42884;50.718;4.630;2023-07-31T03:45:26;18.10;99.90
23873;DHT22;42884;50.718;4.630;2023-07-31T03:47:51;18.10;99.90
23873;DHT22;42884;50.718;4.630;2023-07-31T03:50:17;18.10;99.90
23873;DHT22;42884;50.718;4.630;2023-07-31T03:52:42;18.10;99.90
23873;DHT22;42884;50.718;4.630;2023-07-31T03:55:08;18.10;99.90
23873;DHT22;42884;50.718;4.630;2023-07-31T03:57:34;18.10;99.90
23873;DHT22;42884;50.718;4.630;2023-07-31T03:59:59;18.20;99.90
23873;DHT22;42884;50.718;4.630;2023-07-31T04:02:25;18.10;99.90
23873;DHT22;42884;50.718;4.630;2023-07-31T04:04:50;18.20;99.90
23873;DHT22;42884;50.718;4.630;2023-07-31T04:07:16;18.10;99.90
23873;DHT22;42884;50.718;4.630;2023-07-31T04:09:42;18.20;99.90
23873;DHT22;42884;50.718;4.630;2023-07-31T04:12:07;18.20;99.90
23873;DHT22;42884;50.718;4.630;2023-07-31T04:14:33;18.10;99.90
23873;DHT22;42884;50.718;4.630;2023-07-31T04:16:59;18.00;99.90
23873;DHT22;42884;50.718;4.630;2023-07-31T04:19:24;18.10;99.90
23873;DHT22;42884;50.718;4.630;2023-07-31T04:21:50;18.10;99.90
23873;DHT22;42884;50.718;4.630;2023-07-31T04:24:15;17.90;99.90
23873;DHT22;42884;50.718;4.630;2023-07-31T04:26:41;18.10;99.90
23873;DHT22;42884;50.718;4.630;2023-07-31T04:29:06;18.00;99.90
23873;DHT22;42884;50.718;4.630;2023-07-31T04:31:33;18.10;99.90
23873;DHT22;42884;50.718;4.630;2023-07-31T04:33:59;18.10;99.90
23873;DHT22;42884;50.718;4.630;2023-07-31T04:36:24;18.10;99.90
23873;DHT22;42884;50.718;4.630;2023-07-31T04:38:50;18.10;99.90
23873;DHT22;42884;50.718;4.630;2023-07-31T04:41:15;18.20;99.90
23873;DHT22;42884;50.718;4.630;2023-07-31T04:43:41;18.20;99.90
23873;DHT22;42884;50.718;4.630;2023-07-31T04:46:07;18.30;99.90
23873;DHT22;42884;50.718;4.630;2023-07-31T04:48:32;18.20;99.90
23873;DHT22;42884;50.718;4.630;2023-07-31T04:50:58;18.30;99.90
23873;DHT22;42884;50.718;4.630;2023-07-31T04:53:23;18.20;99.90
23873;DHT22;42884;50.718;4.630;2023-07-31T04:55:49;18.20;99.90
23873;DHT22;42884;50.718;4.630;2023-07-31T04:58:14;18.20;99.90
23873;DHT22;42884;50.718;4.630;2023-07-31T05:00:40;18.20;99.90
23873;DHT22;42884;50.718;4.630;2023-07-31T05:03:06;18.10;99.90
23873;DHT22;42884;50.718;4.630;2023-07-31T05:05:32;18.20;99.90
23873;DHT22;42884;50.718;4.630;2023-07-31T05:07:58;18.20;99.90
23873;DHT22;42884;50.718;4.630;2023-07-31T05:10:23;18.20;99.90
23873;DHT22;42884;50.718;4.630;2023-07-31T05:12:49;18.20;99.90
23873;DHT22;42884;50.718;4.630;2023-07-31T05:15:15;18.20;99.90
23873;DHT22;42884;50.718;4.630;2023-07-31T05:17:40;18.10;99.90
23873;DHT22;42884;50.718;4.630;2023-07-31T05:20:06;18.00;99.90
23873;DHT22;42884;50.718;4.630;2023-07-31T05:22:32;17.90;99.90
23873;DHT22;42884;50.718;4.630;2023-07-31T05:24:57;18.00;99.90
23873;DHT22;42884;50.718;4.630;2023-07-31T05:27:23;17.90;99.90
23873;DHT22;42884;50.718;4.630;2023-07-31T05:29:49;17.90;99.90
23873;DHT22;42884;50.718;4.630;2023-07-31T05:32:14;17.90;99.90
23873;DHT22;42884;50.718;4.630;2023-07-31T05:34:40;17.80;99.90
23873;DHT22;42884;50.718;4.630;2023-07-31T05:37:05;17.90;99.90
23873;DHT22;42884;50.718;4.630;2023-07-31T05:39:31;17.80;99.90
23873;DHT22;42884;50.718;4.630;2023-07-31T05:41:57;17.70;99.90
23873;DHT22;42884;50.718;4.630;2023-07-31T05:44:22;17.60;99.90
23873;DHT22;42884;50.718;4.630;2023-07-31T05:46:48;17.70;99.90
23873;DHT22;42884;50.718;4.630;2023-07-31T05:49:14;17.70;99.90
23873;DHT22;42884;50.718;4.630;2023-07-31T05:51:39;17.80;99.90
23873;DHT22;42884;50.718;4.630;2023-07-31T05:54:05;17.80;99.90
23873;DHT22;42884;50.718;4.630;2023-07-31T05:56:30;17.80;99.90
23873;DHT22;42884;50.718;4.630;2023-07-31T05:58:56;17.70;99.90
23873;DHT22;42884;50.718;4.630;2023-07-31T06:01:22;16.80;99.90
23873;DHT22;42884;50.718;4.630;2023-07-31T06:03:48;17.80;99.90
23873;DHT22;42884;50.718;4.630;2023-07-31T06:06:13;17.70;99.90
23873;DHT22;42884;50.718;4.630;2023-07-31T06:08:39;17.80;99.90
23873;DHT22;42884;50.718;4.630;2023-07-31T06:11:05;17.70;99.90
23873;DHT22;42884;50.718;4.630;2023-07-31T06:13:31;17.60;99.90
23873;DHT22;42884;50.718;4.630;2023-07-31T06:15:56;17.70;99.90
23873;DHT22;42884;50.718;4.630;2023-07-31T06:18:22;17.60;99.90
23873;DHT22;42884;50.718;4.630;2023-07-31T06:20:48;17.60;99.90
23873;DHT22;42884;50.718;4.630;2023-07-31T06:23:19;17.60;99.90
23873;DHT22;42884;50.718;4.630;2023-07-31T06:25:44;17.60;99.90
23873;DHT22;42884;50.718;4.630;2023-07-31T06:28:10;17.60;99.90
23873;DHT22;42884;50.718;4.630;2023-07-31T06:30:35;17.60;99.90
23873;DHT22;42884;50.718;4.630;2023-07-31T06:33:01;17.60;99.90
23873;DHT22;42884;50.718;4.630;2023-07-31T06:35:27;17.70;99.90
23873;DHT22;42884;50.718;4.630;2023-07-31T06:37:52;17.80;99.90
23873;DHT22;42884;50.718;4.630;2023-07-31T06:40:18;17.90;99.90
23873;DHT22;42884;50.718;4.630;2023-07-31T06:42:44;18.00;99.90
23873;DHT22;42884;50.718;4.630;2023-07-31T06:45:10;18.00;99.90
23873;DHT22;42884;50.718;4.630;2023-07-31T06:47:36;18.00;99.90
23873;DHT22;42884;50.718;4.630;2023-07-31T06:50:01;18.00;99.90
23873;DHT22;42884;50.718;4.630;2023-07-31T06:52:27;18.00;99.90
23873;DHT22;42884;50.718;4.630;2023-07-31T06:55:02;17.90;99.90
23873;DHT22;42884;50.718;4.630;2023-07-31T06:57:29;18.00;99.90
23873;DHT22;42884;50.718;4.630;2023-07-31T06:59:54;18.10;99.90
23873;DHT22;42884;50.718;4.630;2023-07-31T07:02:20;18.10;99.90
23873;DHT22;42884;50.718;4.630;2023-07-31T07:04:46;18.10;99.90
23873;DHT22;42884;50.718;4.630;2023-07-31T07:07:11;17.90;99.90
23873;DHT22;42884;50.718;4.630;2023-07-31T07:09:37;18.00;99.90
23873;DHT22;42884;50.718;4.630;2023-07-31T07:12:02;17.90;99.90
23873;DHT22;42884;50.718;4.630;2023-07-31T07:14:28;18.00;99.90
23873;DHT22;42884;50.718;4.630;2023-07-31T07:16:54;18.10;99.90
23873;DHT22;42884;50.718;4.630;2023-07-31T07:19:21;18.10;99.90
23873;DHT22;42884;50.718;4.630;2023-07-31T07:21:47;18.20;99.90
23873;DHT22;42884;50.718;4.630;2023-07-31T07:24:12;18.30;99.90
23873;DHT22;42884;50.718;4.630;2023-07-31T07:26:38;18.30;99.90
23873;DHT22;42884;50.718;4.630;2023-07-31T07:29:04;18.20;99.90
23873;DHT22;42884;50.718;4.630;2023-07-31T07:31:32;18.30;99.90
23873;DHT22;42884;50.718;4.630;2023-07-31T07:33:58;18.30;99.90
23873;DHT22;42884;50.718;4.630;2023-07-31T07:36:23;18.20;99.90
23873;DHT22;42884;50.718;4.630;2023-07-31T07:38:49;18.20;99.90
23873;DHT22;42884;50.718;4.630;2023-07-31T07:41:15;18.20;99.90
23873;DHT22;42884;50.718;4.630;2023-07-31T07:43:40;18.20;99.90
23873;DHT22;42884;50.718;4.630;2023-07-31T07:46:06;18.30;99.90
23873;DHT22;42884;50.718;4.630;2023-07-31T07:48:31;18.30;99.90
23873;DHT22;42884;50.718;4.630;2023-07-31T07:50:57;18.30;99.90
23873;DHT22;42884;50.718;4.630;2023-07-31T07:53:22;18.40;99.90
23873;DHT22;42884;50.718;4.630;2023-07-31T07:55:48;18.30;99.90
23873;DHT22;42884;50.718;4.630;2023-07-31T07:58:14;18.30;99.90
23873;DHT22;42884;50.718;4.630;2023-07-31T08:00:39;18.30;99.90
23873;DHT22;42884;50.718;4.630;2023-07-31T08:03:05;18.30;99.90
23873;DHT22;42884;50.718;4.630;2023-07-31T08:05:31;18.50;99.90
23873;DHT22;42884;50.718;4.630;2023-07-31T08:07:59;18.50;99.90
23873;DHT22;42884;50.718;4.630;2023-07-31T08:10:25;18.40;99.90
23873;DHT22;42884;50.718;4.630;2023-07-31T08:12:50;18.40;99.90
23873;DHT22;42884;50.718;4.630;2023-07-31T08:15:16;18.40;99.90
23873;DHT22;42884;50.718;4.630;2023-07-31T08:17:42;18.50;99.90
23873;DHT22;42884;50.718;4.630;2023-07-31T08:20:07;18.60;99.90
23873;DHT22;42884;50.718;4.630;2023-07-31T08:22:33;18.60;99.90
23873;DHT22;42884;50.718;4.630;2023-07-31T08:24:59;18.50;99.90
23873;DHT22;42884;50.718;4.630;2023-07-31T08:27:24;18.40;99.90
23873;DHT22;42884;50.718;4.630;2023-07-31T08:29:51;18.50;99.90
23873;DHT22;42884;50.718;4.630;2023-07-31T08:32:17;18.20;99.90
23873;DHT22;42884;50.718;4.630;2023-07-31T08:34:42;18.30;99.90
23873;DHT22;42884;50.718;4.630;2023-07-31T08:37:08;18.30;99.90
23873;DHT22;42884;50.718;4.630;2023-07-31T08:39:34;19.00;99.90
23873;DHT22;42884;50.718;4.630;2023-07-31T08:41:59;18.40;99.90
23873;DHT22;42884;50.718;4.630;2023-07-31T08:44:25;18.40;99.90
23873;DHT22;42884;50.718;4.630;2023-07-31T08:46:51;18.20;99.90
23873;DHT22;42884;50.718;4.630;2023-07-31T08:49:17;18.40;99.90
23873;DHT22;42884;50.718;4.630;2023-07-31T08:51:45;18.40;99.90
23873;DHT22;42884;50.718;4.630;2023-07-31T08:54:12;18.10;99.90
23873;DHT22;42884;50.718;4.630;2023-07-31T08:56:37;18.40;99.90
23873;DHT22;42884;50.718;4.630;2023-07-31T08:59:04;18.30;99.90
23873;DHT22;42884;50.718;4.630;2023-07-31T09:01:30;18.30;99.90
23873;DHT22;42884;50.718;4.630;2023-07-31T09:03:57;18.30;99.90
23873;DHT22;42884;50.718;4.630;2023-07-31T09:06:24;18.30;99.90
23873;DHT22;42884;50.718;4.630;2023-07-31T09:08:51;18.40;99.90
23873;DHT22;42884;50.718;4.630;2023-07-31T09:11:17;18.40;99.90
23873;DHT22;42884;50.718;4.630;2023-07-31T09:13:42;18.50;99.90
23873;DHT22;42884;50.718;4.630;2023-07-31T09:16:08;18.40;99.90
23873;DHT22;42884;50.718;4.630;2023-07-31T09:18:54;18.20;99.90
23873;DHT22;42884;50.718;4.630;2023-07-31T09:21:23;18.30;99.90
23873;DHT22;42884;50.718;4.630;2023-07-31T09:23:49;18.40;99.90
23873;DHT22;42884;50.718;4.630;2023-07-31T09:28:56;18.60;99.90
23873;DHT22;42884;50.718;4.630;2023-07-31T09:31:31;18.70;99.90
23873;DHT22;42884;50.718;4.630;2023-07-31T09:33:57;18.80;99.90
23873;DHT22;42884;50.718;4.630;2023-07-31T09:36:22;18.70;99.90
23873;DHT22;42884;50.718;4.630;2023-07-31T09:38:48;18.70;99.90
23873;DHT22;42884;50.718;4.630;2023-07-31T09:41:18;18.90;99.90
23873;DHT22;42884;50.718;4.630;2023-07-31T09:43:52;19.00;99.90
23873;DHT22;42884;50.718;4.630;2023-07-31T09:46:18;19.10;99.90
23873;DHT22;42884;50.718;4.630;2023-07-31T09:48:45;19.20;99.90
23873;DHT22;42884;50.718;4.630;2023-07-31T09:51:11;19.10;99.90
23873;DHT22;42884;50.718;4.630;2023-07-31T09:53:37;19.20;99.90
23873;DHT22;42884;50.718;4.630;2023-07-31T09:56:02;19.30;99.90
23873;DHT22;42884;50.718;4.630;2023-07-31T09:58:29;19.10;99.90
23873;DHT22;42884;50.718;4.630;2023-07-31T10:00:55;19.10;99.90
23873;DHT22;42884;50.718;4.630;2023-07-31T10:03:22;19.20;99.90
23873;DHT22;42884;50.718;4.630;2023-07-31T10:05:52;19.30;99.90
23873;DHT22;42884;50.718;4.630;2023-07-31T10:08:19;19.20;99.90
23873;DHT22;42884;50.718;4.630;2023-07-31T10:10:46;19.30;99.90
23873;DHT22;42884;50.718;4.630;2023-07-31T10:13:13;19.20;99.90
23873;DHT22;42884;50.718;4.630;2023-07-31T10:15:39;19.40;99.90
23873;DHT22;42884;50.718;4.630;2023-07-31T10:18:06;19.50;99.90
23873;DHT22;42884;50.718;4.630;2023-07-31T10:20:32;19.70;99.90
23873;DHT22;42884;50.718;4.630;2023-07-31T10:22:57;19.60;99.90
23873;DHT22;42884;50.718;4.630;2023-07-31T10:25:24;19.60;99.90
23873;DHT22;42884;50.718;4.630;2023-07-31T10:27:51;19.70;99.90
23873;DHT22;42884;50.718;4.630;2023-07-31T10:30:18;19.70;99.90
23873;DHT22;42884;50.718;4.630;2023-07-31T10:32:45;19.60;99.90
23873;DHT22;42884;50.718;4.630;2023-07-31T10:35:11;19.60;99.90
23873;DHT22;42884;50.718;4.630;2023-07-31T10:37:38;19.60;99.90
23873;DHT22;42884;50.718;4.630;2023-07-31T10:40:05;19.60;99.90
23873;DHT22;42884;50.718;4.630;2023-07-31T10:42:36;19.80;99.90
23873;DHT22;42884;50.718;4.630;2023-07-31T10:45:06;19.90;99.90
23873;DHT22;42884;50.718;4.630;2023-07-31T10:47:36;19.80;99.90
23873;DHT22;42884;50.718;4.630;2023-07-31T10:50:12;19.80;99.90
23873;DHT22;42884;50.718;4.630;2023-07-31T10:52:38;19.80;99.90
23873;DHT22;42884;50.718;4.630;2023-07-31T10:57:48;19.90;99.90
23873;DHT22;42884;50.718;4.630;2023-07-31T11:00:19;19.80;99.90
23873;DHT22;42884;50.718;4.630;2023-07-31T11:03:07;19.80;99.90
23873;DHT22;42884;50.718;4.630;2023-07-31T11:08:13;20.00;99.90
23873;DHT22;42884;50.718;4.630;2023-07-31T11:10:39;20.10;99.90
23873;DHT22;42884;50.718;4.630;2023-07-31T11:13:05;20.30;99.90
23873;DHT22;42884;50.718;4.630;2023-07-31T11:15:31;20.50;99.90
23873;DHT22;42884;50.718;4.630;2023-07-31T11:17:56;20.50;99.90
23873;DHT22;42884;50.718;4.630;2023-07-31T11:20:26;20.50;99.90
23873;DHT22;42884;50.718;4.630;2023-07-31T11:22:52;20.30;99.90
23873;DHT22;42884;50.718;4.630;2023-07-31T11:25:18;20.30;99.90
23873;DHT22;42884;50.718;4.630;2023-07-31T11:27:43;20.40;99.90
23873;DHT22;42884;50.718;4.630;2023-07-31T11:30:09;20.60;99.90
23873;DHT22;42884;50.718;4.630;2023-07-31T11:32:38;20.60;99.90
23873;DHT22;42884;50.718;4.630;2023-07-31T11:35:03;20.60;99.90
23873;DHT22;42884;50.718;4.630;2023-07-31T11:37:41;20.70;99.90
23873;DHT22;42884;50.718;4.630;2023-07-31T11:40:07;20.70;99.90
23873;DHT22;42884;50.718;4.630;2023-07-31T11:42:33;20.70;99.90
23873;DHT22;42884;50.718;4.630;2023-07-31T11:45:01;20.60;99.90
23873;DHT22;42884;50.718;4.630;2023-07-31T11:47:27;20.50;99.90
23873;DHT22;42884;50.718;4.630;2023-07-31T11:49:52;20.50;99.90
23873;DHT22;42884;50.718;4.630;2023-07-31T11:52:18;20.60;99.90
23873;DHT22;42884;50.718;4.630;2023-07-31T11:54:45;20.70;99.90
23873;DHT22;42884;50.718;4.630;2023-07-31T11:57:11;20.70;99.90
23873;DHT22;42884;50.718;4.630;2023-07-31T11:59:38;20.60;99.90
23873;DHT22;42884;50.718;4.630;2023-07-31T12:02:04;20.60;99.90
23873;DHT22;42884;50.718;4.630;2023-07-31T12:04:30;20.60;99.90
23873;DHT22;42884;50.718;4.630;2023-07-31T12:06:57;20.70;99.90
23873;DHT22;42884;50.718;4.630;2023-07-31T12:09:25;20.80;99.90
23873;DHT22;42884;50.718;4.630;2023-07-31T12:11:51;20.90;99.90
23873;DHT22;42884;50.718;4.630;2023-07-31T12:14:20;21.00;99.90
23873;DHT22;42884;50.718;4.630;2023-07-31T12:16:47;21.40;99.90
23873;DHT22;42884;50.718;4.630;2023-07-31T12:19:13;21.80;99.90
23873;DHT22;42884;50.718;4.630;2023-07-31T12:21:38;21.80;99.90
23873;DHT22;42884;50.718;4.630;2023-07-31T12:24:07;21.90;99.90
23873;DHT22;42884;50.718;4.630;2023-07-31T12:26:35;21.80;99.90
23873;DHT22;42884;50.718;4.630;2023-07-31T12:29:01;22.10;99.90
23873;DHT22;42884;50.718;4.630;2023-07-31T12:31:27;21.70;99.90
23873;DHT22;42884;50.718;4.630;2023-07-31T12:33:53;21.80;99.90
23873;DHT22;42884;50.718;4.630;2023-07-31T12:36:22;21.70;99.90
23873;DHT22;42884;50.718;4.630;2023-07-31T12:38:48;21.50;99.90
23873;DHT22;42884;50.718;4.630;2023-07-31T12:41:13;21.50;99.90
23873;DHT22;42884;50.718;4.630;2023-07-31T12:43:40;21.60;99.90
23873;DHT22;42884;50.718;4.630;2023-07-31T12:46:06;21.40;99.90
23873;DHT22;42884;50.718;4.630;2023-07-31T12:48:33;21.50;99.90
23873;DHT22;42884;50.718;4.630;2023-07-31T12:50:58;21.20;99.90
23873;DHT22;42884;50.718;4.630;2023-07-31T12:53:24;21.10;99.90
23873;DHT22;42884;50.718;4.630;2023-07-31T12:55:50;20.50;99.90
23873;DHT22;42884;50.718;4.630;2023-07-31T12:58:15;20.90;99.90
23873;DHT22;42884;50.718;4.630;2023-07-31T13:00:41;21.00;99.90
23873;DHT22;42884;50.718;4.630;2023-07-31T13:03:07;21.00;99.90
23873;DHT22;42884;50.718;4.630;2023-07-31T13:05:33;21.20;99.90
23873;DHT22;42884;50.718;4.630;2023-07-31T13:07:59;21.40;99.90
23873;DHT22;42884;50.718;4.630;2023-07-31T13:10:24;21.60;99.90
23873;DHT22;42884;50.718;4.630;2023-07-31T13:12:52;21.80;99.90
23873;DHT22;42884;50.718;4.630;2023-07-31T13:15:17;22.00;99.90
23873;DHT22;42884;50.718;4.630;2023-07-31T13:17:43;22.00;99.90
23873;DHT22;42884;50.718;4.630;2023-07-31T13:20:09;22.00;99.90
23873;DHT22;42884;50.718;4.630;2023-07-31T13:22:34;21.90;99.90
23873;DHT22;42884;50.718;4.630;2023-07-31T13:25:00;21.90;99.90
23873;DHT22;42884;50.718;4.630;2023-07-31T13:27:25;21.50;99.90
23873;DHT22;42884;50.718;4.630;2023-07-31T13:29:51;21.40;99.90
23873;DHT22;42884;50.718;4.630;2023-07-31T13:32:17;21.30;99.90
23873;DHT22;42884;50.718;4.630;2023-07-31T13:34:44;21.10;99.90
23873;DHT22;42884;50.718;4.630;2023-07-31T13:37:09;21.10;99.90
23873;DHT22;42884;50.718;4.630;2023-07-31T13:39:35;21.00;99.90
23873;DHT22;42884;50.718;4.630;2023-07-31T13:42:05;20.60;99.90
23873;DHT22;42884;50.718;4.630;2023-07-31T13:44:33;20.40;99.90
23873;DHT22;42884;50.718;4.630;2023-07-31T13:46:59;20.40;99.90
23873;DHT22;42884;50.718;4.630;2023-07-31T13:49:26;20.30;99.90
23873;DHT22;42884;50.718;4.630;2023-07-31T13:51:55;20.10;99.90
23873;DHT22;42884;50.718;4.630;2023-07-31T13:54:23;20.10;99.90
23873;DHT22;42884;50.718;4.630;2023-07-31T13:56:49;19.90;99.90
23873;DHT22;42884;50.718;4.630;2023-07-31T13:59:17;19.90;99.90
23873;DHT22;42884;50.718;4.630;2023-07-31T14:01:46;19.70;99.90
23873;DHT22;42884;50.718;4.630;2023-07-31T14:04:12;19.70;99.90
23873;DHT22;42884;50.718;4.630;2023-07-31T14:06:37;19.70;99.90
23873;DHT22;42884;50.718;4.630;2023-07-31T14:09:03;19.60;99.90
23873;DHT22;42884;50.718;4.630;2023-07-31T14:11:30;19.50;99.90
23873;DHT22;42884;50.718;4.630;2023-07-31T14:13:56;19.50;99.90
23873;DHT22;42884;50.718;4.630;2023-07-31T14:16:22;19.60;99.90
23873;DHT22;42884;50.718;4.630;2023-07-31T14:18:48;19.60;99.90
23873;DHT22;42884;50.718;4.630;2023-07-31T14:21:13;19.60;99.90
23873;DHT22;42884;50.718;4.630;2023-07-31T14:23:40;19.60;99.90
23873;DHT22;42884;50.718;4.630;2023-07-31T14:26:05;19.50;99.90
23873;DHT22;42884;50.718;4.630;2023-07-31T14:28:31;19.40;99.90
23873;DHT22;42884;50.718;4.630;2023-07-31T14:30:56;19.50;99.90
23873;DHT22;42884;50.718;4.630;2023-07-31T14:33:22;19.50;99.90
23873;DHT22;42884;50.718;4.630;2023-07-31T14:35:48;19.40;99.90
23873;DHT22;42884;50.718;4.630;2023-07-31T14:38:13;19.40;99.90
23873;DHT22;42884;50.718;4.630;2023-07-31T14:40:39;19.50;99.90
23873;DHT22;42884;50.718;4.630;2023-07-31T14:43:07;19.60;99.90
23873;DHT22;42884;50.718;4.630;2023-07-31T14:45:33;19.70;99.90
23873;DHT22;42884;50.718;4.630;2023-07-31T14:47:58;19.80;99.90
23873;DHT22;42884;50.718;4.630;2023-07-31T14:50:25;19.70;99.90
23873;DHT22;42884;50.718;4.630;2023-07-31T14:52:50;19.80;99.90
23873;DHT22;42884;50.718;4.630;2023-07-31T14:55:16;19.60;99.90
23873;DHT22;42884;50.718;4.630;2023-07-31T14:57:42;19.60;99.90
23873;DHT22;42884;50.718;4.630;2023-07-31T15:00:07;19.60;99.90
23873;DHT22;42884;50.718;4.630;2023-07-31T15:02:37;19.60;99.90
23873;DHT22;42884;50.718;4.630;2023-07-31T15:05:03;19.50;99.90
23873;DHT22;42884;50.718;4.630;2023-07-31T15:07:30;19.60;99.90
23873;DHT22;42884;50.718;4.630;2023-07-31T15:09:56;19.40;99.90
23873;DHT22;42884;50.718;4.630;2023-07-31T15:12:22;19.30;99.90
23873;DHT22;42884;50.718;4.630;2023-07-31T15:14:49;19.40;99.90
23873;DHT22;42884;50.718;4.630;2023-07-31T15:17:15;19.40;99.90
23873;DHT22;42884;50.718;4.630;2023-07-31T15:19:41;19.50;99.90
23873;DHT22;42884;50.718;4.630;2023-07-31T15:22:07;19.40;99.90
23873;DHT22;42884;50.718;4.630;2023-07-31T15:24:33;19.50;99.90
23873;DHT22;42884;50.718;4.630;2023-07-31T15:26:58;19.30;99.90
23873;DHT22;42884;50.718;4.630;2023-07-31T15:29:24;19.40;99.90
23873;DHT22;42884;50.718;4.630;2023-07-31T15:31:50;19.40;99.90
23873;DHT22;42884;50.718;4.630;2023-07-31T15:34:16;19.20;99.90
23873;DHT22;42884;50.718;4.630;2023-07-31T15:36:41;19.20;99.90
23873;DHT22;42884;50.718;4.630;2023-07-31T15:39:11;19.10;99.90
23873;DHT22;42884;50.718;4.630;2023-07-31T15:41:37;19.10;99.90
23873;DHT22;42884;50.718;4.630;2023-07-31T15:44:05;19.00;99.90